createdAt,value
2023-05-08T00:00:59.162Z,12.40
2023-05-08T00:03:26.931Z,12.30
2023-05-08T00:05:55.870Z,12.30
2023-05-08T00:08:23.777Z,12.30
2023-05-08T00:10:50.759Z,12.30
2023-05-08T00:13:17.790Z,12.30
2023-05-08T00:15:44.817Z,12.20
2023-05-08T00:18:11.881Z,12.20
2023-05-08T00:20:38.839Z,12.20
2023-05-08T00:23:05.784Z,12.20
2023-05-08T00:25:32.680Z,12.20
2023-05-08T00:28:00.413Z,12.20
2023-05-08T00:30:27.563Z,12.20
2023-05-08T00:32:54.641Z,12.20
2023-05-08T00:35:22.086Z,12.10
2023-05-08T00:37:48.965Z,12.10
2023-05-08T00:40:16.175Z,12.10
2023-05-08T00:42:43.161Z,12.10
2023-05-08T00:45:10.789Z,12.10
2023-05-08T00:47:37.895Z,12.00
2023-05-08T00:50:05.708Z,12.00
2023-05-08T00:52:33.905Z,12.00
2023-05-08T00:55:05.784Z,12.00
2023-05-08T00:57:35.787Z,12.00
2023-05-08T01:00:05.749Z,12.00
2023-05-08T01:02:33.082Z,12.00
2023-05-08T01:05:00.570Z,12.00
2023-05-08T01:07:28.212Z,12.00
2023-05-08T01:09:55.550Z,12.00
2023-05-08T01:12:56.044Z,11.90
2023-05-08T01:15:38.177Z,11.90
2023-05-08T01:18:13.593Z,11.90
2023-05-08T01:21:42.102Z,11.90
2023-05-08T01:24:47.597Z,11.90
2023-05-08T01:28:08.174Z,11.90
2023-05-08T01:31:16.816Z,11.90
2023-05-08T01:34:15.865Z,11.90
2023-05-08T01:37:02.447Z,11.80
2023-05-08T01:43:04.781Z,11.80
2023-05-08T01:45:39.596Z,11.80
2023-05-08T01:58:43.766Z,11.70
2023-05-08T02:01:15.957Z,11.70
2023-05-08T02:03:44.760Z,11.70
2023-05-08T02:06:14.285Z,11.70
2023-05-08T02:08:42.874Z,11.70
2023-05-08T02:11:12.679Z,11.70
2023-05-08T02:13:40.683Z,11.70
2023-05-08T02:16:10.256Z,11.70
2023-05-08T02:18:41.638Z,11.70
2023-05-08T02:21:09.526Z,11.70
2023-05-08T02:23:36.866Z,11.70
2023-05-08T02:26:05.233Z,11.60
2023-05-08T02:28:34.280Z,11.60
2023-05-08T02:31:01.815Z,11.60
2023-05-08T02:33:33.128Z,11.60
2023-05-08T02:36:02.143Z,11.60
2023-05-08T02:38:33.266Z,11.60
2023-05-08T02:41:05.546Z,11.60
2023-05-08T02:43:32.740Z,11.60
2023-05-08T02:46:37.370Z,11.60
2023-05-08T02:49:12.554Z,11.50
2023-05-08T02:52:11.423Z,11.50
2023-05-08T02:55:09.918Z,11.50
2023-05-08T02:58:23.543Z,11.50
2023-05-08T03:01:01.407Z,11.40
2023-05-08T03:03:38.261Z,11.40
2023-05-08T03:06:13.992Z,11.40
2023-05-08T03:08:45.823Z,11.40
2023-05-08T03:11:19.130Z,11.40
2023-05-08T03:13:47.100Z,11.30
2023-05-08T03:16:24.468Z,11.30
2023-05-08T03:18:57.961Z,11.30
2023-05-08T03:21:32.140Z,11.30
2023-05-08T03:24:04.834Z,11.30
2023-05-08T03:26:32.466Z,11.30
2023-05-08T03:29:02.908Z,11.30
2023-05-08T03:31:33.088Z,11.30
2023-05-08T03:34:02.558Z,11.20
2023-05-08T03:36:30.597Z,11.20
2023-05-08T03:39:00.342Z,11.20
2023-05-08T03:41:32.418Z,11.20
2023-05-08T03:43:59.682Z,11.20
2023-05-08T03:46:29.261Z,11.10
2023-05-08T03:48:57.224Z,11.10
2023-05-08T03:51:24.298Z,11.10
2023-05-08T03:53:51.180Z,11.00
2023-05-08T03:56:18.103Z,11.10
2023-05-08T03:58:51.157Z,11.00
2023-05-08T04:01:37.602Z,11.00
2023-05-08T04:04:09.951Z,11.00
2023-05-08T04:06:51.083Z,11.10
2023-05-08T04:09:24.845Z,11.00
2023-05-08T04:12:22.138Z,11.00
2023-05-08T04:14:56.406Z,11.00
2023-05-08T04:17:43.201Z,11.00
2023-05-08T04:20:14.905Z,11.00
2023-05-08T04:22:43.541Z,11.10
2023-05-08T04:25:12.792Z,11.10
2023-05-08T04:27:39.958Z,11.10
2023-05-08T04:30:09.430Z,11.10
2023-05-08T04:32:40.446Z,11.20
2023-05-08T04:35:08.785Z,11.20
2023-05-08T04:37:35.803Z,11.20
2023-05-08T04:40:04.050Z,11.20
2023-05-08T04:42:31.027Z,11.30
2023-05-08T04:44:58.019Z,11.30
2023-05-08T04:47:24.961Z,11.40
2023-05-08T04:49:51.908Z,11.40
2023-05-08T04:52:18.802Z,11.50
2023-05-08T04:54:47.110Z,11.60
2023-05-08T04:57:14.203Z,11.80
2023-05-08T04:59:41.085Z,11.90
2023-05-08T05:02:09.307Z,12.10
2023-05-08T05:04:36.899Z,13.00
2023-05-08T05:07:04.184Z,13.80
2023-05-08T05:09:31.194Z,13.90
2023-05-08T05:11:58.374Z,14.10
2023-05-08T05:14:25.414Z,14.50
2023-05-08T05:16:52.870Z,15.10
2023-05-08T05:19:19.835Z,15.40
2023-05-08T05:21:46.765Z,16.00
2023-05-08T05:24:13.693Z,16.40
2023-05-08T05:26:41.227Z,16.30
2023-05-08T05:29:08.247Z,15.80
2023-05-08T05:31:35.348Z,15.20
2023-05-08T05:34:02.297Z,15.00
2023-05-08T05:36:29.508Z,14.60
2023-05-08T05:38:56.362Z,14.50
2023-05-08T05:41:23.313Z,14.50
2023-05-08T05:43:50.198Z,14.40
2023-05-08T05:46:18.050Z,14.50
2023-05-08T05:48:44.979Z,14.50
2023-05-08T05:51:12.294Z,14.50
2023-05-08T05:53:39.176Z,14.50
2023-05-08T05:56:06.793Z,14.40
2023-05-08T05:58:35.558Z,14.30
2023-05-08T06:01:02.491Z,14.20
2023-05-08T06:03:29.535Z,14.20
2023-05-08T06:05:56.794Z,14.30
2023-05-08T06:08:23.687Z,14.50
2023-05-08T06:10:50.648Z,14.30
2023-05-08T06:13:17.676Z,14.30
2023-05-08T06:15:44.620Z,14.20
2023-05-08T06:18:11.606Z,14.10
2023-05-08T06:20:39.000Z,14.00
2023-05-08T06:23:06.168Z,14.00
2023-05-08T06:25:33.213Z,14.00
2023-05-08T06:28:00.190Z,14.10
2023-05-08T06:30:27.208Z,14.10
2023-05-08T06:32:54.298Z,14.10
2023-05-08T06:35:21.259Z,14.20
2023-05-08T06:37:48.108Z,14.30
2023-05-08T06:40:15.157Z,14.30
2023-05-08T06:42:42.155Z,14.30
2023-05-08T06:45:09.738Z,14.30
2023-05-08T06:47:36.911Z,14.40
2023-05-08T06:50:04.510Z,14.50
2023-05-08T06:52:31.463Z,14.50
2023-05-08T06:54:58.454Z,14.50
2023-05-08T06:57:27.327Z,14.60
2023-05-08T06:59:54.335Z,14.60
2023-05-08T07:02:21.309Z,14.70
2023-05-08T07:04:48.264Z,14.70
2023-05-08T07:07:15.449Z,14.80
2023-05-08T07:09:42.391Z,14.90
2023-05-08T07:12:09.575Z,14.80
2023-05-08T07:14:36.926Z,14.90
2023-05-08T07:17:08.071Z,14.90
2023-05-08T07:19:38.709Z,14.80
2023-05-08T07:22:06.511Z,14.90
2023-05-08T07:24:33.561Z,15.00
2023-05-08T07:27:01.350Z,15.10
2023-05-08T07:29:28.310Z,15.30
2023-05-08T07:31:55.362Z,15.10
2023-05-08T07:34:22.312Z,15.00
2023-05-08T07:36:49.468Z,15.20
2023-05-08T07:39:16.568Z,15.20
2023-05-08T07:41:43.554Z,15.40
2023-05-08T07:44:10.530Z,15.60
2023-05-08T07:46:37.676Z,15.60
2023-05-08T07:49:04.602Z,15.80
2023-05-08T07:51:32.468Z,15.90
2023-05-08T07:53:59.371Z,16.00
2023-05-08T07:56:27.358Z,16.00
2023-05-08T07:58:54.461Z,16.10
2023-05-08T08:01:21.408Z,16.20
2023-05-08T08:03:48.543Z,16.20
2023-05-08T08:06:15.691Z,16.30
2023-05-08T08:08:42.622Z,16.40
2023-05-08T08:11:09.936Z,16.40
2023-05-08T08:13:36.795Z,16.60
2023-05-08T08:16:06.736Z,16.70
2023-05-08T08:18:37.037Z,16.80
2023-05-08T08:21:07.636Z,16.90
2023-05-08T08:23:34.999Z,17.20
2023-05-08T08:26:01.975Z,17.50
2023-05-08T08:28:28.906Z,17.70
2023-05-08T08:30:55.880Z,17.90
2023-05-08T08:33:22.919Z,18.10
2023-05-08T08:35:49.831Z,18.10
2023-05-08T08:38:17.006Z,18.40
2023-05-08T08:40:43.896Z,18.70
2023-05-08T08:43:10.905Z,19.00
2023-05-08T08:45:38.688Z,18.90
2023-05-08T08:48:08.755Z,18.80
2023-05-08T08:50:36.502Z,18.80
2023-05-08T08:53:31.030Z,18.80
2023-05-08T08:56:00.956Z,18.80
2023-05-08T08:58:33.939Z,18.80
2023-05-08T09:01:04.070Z,18.60
2023-05-08T09:03:32.095Z,18.70
2023-05-08T09:06:02.782Z,18.90
2023-05-08T09:08:30.039Z,18.80
2023-05-08T09:10:57.039Z,18.80
2023-05-08T09:13:24.056Z,18.90
2023-05-08T09:15:51.225Z,18.90
2023-05-08T09:18:19.337Z,19.20
2023-05-08T09:20:46.769Z,19.40
2023-05-08T09:23:17.364Z,19.50
2023-05-08T09:25:45.424Z,19.60
2023-05-08T09:28:17.863Z,19.60
2023-05-08T09:30:56.785Z,19.50
2023-05-08T09:33:25.765Z,19.40
2023-05-08T09:35:52.778Z,19.50
2023-05-08T09:38:40.360Z,19.60
2023-05-08T09:41:12.578Z,19.90
2023-05-08T09:43:39.661Z,20.10
2023-05-08T09:46:27.010Z,20.30
2023-05-08T09:48:58.834Z,20.50
2023-05-08T09:51:27.526Z,20.50
2023-05-08T09:53:55.965Z,20.50
2023-05-08T09:56:37.044Z,20.60
2023-05-08T09:59:06.509Z,20.90
2023-05-08T10:01:37.333Z,21.00
2023-05-08T10:04:06.134Z,21.10
2023-05-08T10:06:33.479Z,21.30
2023-05-08T10:09:14.590Z,21.50
2023-05-08T10:11:52.053Z,21.70
2023-05-08T10:14:20.113Z,21.60
2023-05-08T10:16:52.891Z,21.60
2023-05-08T10:19:25.266Z,21.70
2023-05-08T10:21:54.988Z,21.90
2023-05-08T10:24:33.642Z,22.10
2023-05-08T10:27:24.613Z,22.50
2023-05-08T10:29:54.468Z,22.80
2023-05-08T10:32:23.393Z,23.10
2023-05-08T10:34:53.754Z,23.20
2023-05-08T10:37:20.908Z,23.50
2023-05-08T10:39:49.207Z,23.90
2023-05-08T10:42:16.411Z,24.20
2023-05-08T10:44:43.789Z,24.60
2023-05-08T10:47:27.935Z,24.80
2023-05-08T10:50:19.677Z,25.10
2023-05-08T10:53:19.038Z,25.20
2023-05-08T10:55:50.383Z,24.60
2023-05-08T10:58:34.593Z,24.40
2023-05-08T11:01:21.769Z,24.30
2023-05-08T11:03:52.560Z,23.90
2023-05-08T11:06:52.843Z,23.90
2023-05-08T11:09:27.070Z,23.80
2023-05-08T11:12:07.216Z,23.60
2023-05-08T11:14:36.831Z,23.50
2023-05-08T11:17:04.771Z,23.50
2023-05-08T11:19:32.045Z,23.10
2023-05-08T11:22:33.091Z,22.50
2023-05-08T11:25:05.746Z,21.90
2023-05-08T11:27:58.552Z,21.80
2023-05-08T11:30:36.530Z,21.60
2023-05-08T11:33:13.718Z,21.50
2023-05-08T11:35:58.188Z,21.60
2023-05-08T11:38:36.676Z,21.60
2023-05-08T11:41:24.165Z,21.70
2023-05-08T11:44:15.020Z,21.80
2023-05-08T11:46:48.975Z,21.90
2023-05-08T11:49:17.277Z,22.10
2023-05-08T11:51:58.141Z,22.30
2023-05-08T11:54:26.014Z,22.30
2023-05-08T11:56:57.144Z,22.10
2023-05-08T11:59:24.119Z,21.90
2023-05-08T12:04:22.967Z,21.80
2023-05-08T12:06:51.563Z,21.80
2023-05-08T12:09:20.496Z,21.70
2023-05-08T12:11:47.618Z,21.60
2023-05-08T12:14:18.043Z,21.50
2023-05-08T12:16:44.965Z,21.30
2023-05-08T12:19:13.367Z,21.00
2023-05-08T12:21:48.824Z,20.70
2023-05-08T12:24:23.569Z,20.40
2023-05-08T12:26:54.677Z,20.20
2023-05-08T12:29:21.992Z,19.80
2023-05-08T12:31:49.631Z,19.50
2023-05-08T12:34:16.576Z,19.30
2023-05-08T12:36:43.506Z,19.20
2023-05-08T12:39:17.600Z,19.00
2023-05-08T12:41:52.528Z,19.00
2023-05-08T12:44:26.383Z,18.90
2023-05-08T12:46:55.484Z,18.90
2023-05-08T12:49:30.312Z,18.80
2023-05-08T12:52:05.399Z,18.80
2023-05-08T12:54:39.214Z,18.80
2023-05-08T12:57:13.086Z,18.80
2023-05-08T12:59:41.235Z,18.90
2023-05-08T13:02:18.384Z,19.00
2023-05-08T13:04:45.911Z,19.10
2023-05-08T13:07:13.048Z,19.20
2023-05-08T13:09:40.555Z,19.30
2023-05-08T13:12:07.875Z,19.40
2023-05-08T13:14:34.779Z,19.60
2023-05-08T13:17:02.067Z,19.70
2023-05-08T13:19:29.111Z,19.90
2023-05-08T13:21:56.042Z,20.00
2023-05-08T13:24:23.045Z,20.00
2023-05-08T13:26:49.962Z,20.10
2023-05-08T13:29:17.358Z,20.30
2023-05-08T13:31:44.287Z,20.40
2023-05-08T13:34:11.324Z,20.50
2023-05-08T13:36:38.210Z,20.60
2023-05-08T13:39:05.691Z,20.60
2023-05-08T13:41:32.553Z,20.50
2023-05-08T13:43:59.398Z,20.50
2023-05-08T13:46:26.524Z,20.40
2023-05-08T13:48:53.506Z,20.40
2023-05-08T13:51:20.445Z,20.40
2023-05-08T13:53:47.385Z,20.20
2023-05-08T13:56:14.348Z,20.10
2023-05-08T13:58:41.325Z,20.10
2023-05-08T14:01:25.092Z,20.10
2023-05-08T14:03:53.225Z,20.20
2023-05-08T14:06:21.189Z,20.30
2023-05-08T14:08:50.946Z,20.50
2023-05-08T14:11:18.571Z,20.60
2023-05-08T14:13:45.463Z,20.80
2023-05-08T14:16:14.406Z,20.90
2023-05-08T14:18:41.412Z,21.00
2023-05-08T14:21:08.297Z,21.10
2023-05-08T14:23:36.022Z,21.00
2023-05-08T14:26:03.100Z,21.00
2023-05-08T14:28:30.156Z,20.80
2023-05-08T14:30:57.076Z,20.70
2023-05-08T14:33:24.095Z,20.70
2023-05-08T14:35:50.982Z,20.40
2023-05-08T14:38:17.922Z,20.00
2023-05-08T14:40:44.892Z,19.70
2023-05-08T14:43:11.768Z,19.20
2023-05-08T14:45:38.663Z,18.80
2023-05-08T14:48:06.406Z,18.60
2023-05-08T14:50:33.308Z,18.50
2023-05-08T14:53:00.405Z,18.40
2023-05-08T14:55:27.568Z,18.30
2023-05-08T14:57:54.533Z,18.30
2023-05-08T15:00:21.572Z,18.40
2023-05-08T15:02:48.932Z,18.30
2023-05-08T15:05:19.997Z,18.10
2023-05-08T15:07:49.592Z,18.10
2023-05-08T15:10:16.603Z,18.20
2023-05-08T15:12:43.518Z,18.30
2023-05-08T15:15:10.829Z,18.20
2023-05-08T15:17:37.783Z,18.20
2023-05-08T15:20:06.375Z,18.40
2023-05-08T15:22:33.312Z,18.50
2023-05-08T15:25:02.525Z,18.70
2023-05-08T15:27:29.993Z,18.60
2023-05-08T15:29:57.338Z,18.50
2023-05-08T15:32:24.748Z,18.40
2023-05-08T15:34:51.651Z,18.40
2023-05-08T15:37:18.697Z,18.30
2023-05-08T15:39:45.576Z,18.20
2023-05-08T15:42:12.493Z,18.30
2023-05-08T15:44:54.544Z,18.40
2023-05-08T15:47:23.360Z,18.40
2023-05-08T15:49:51.306Z,18.40
2023-05-08T15:52:19.775Z,18.40
2023-05-08T15:54:47.778Z,18.30
2023-05-08T15:57:14.921Z,18.30
2023-05-08T15:59:41.845Z,18.30
2023-05-08T16:02:09.270Z,18.40
2023-05-08T16:04:36.461Z,18.30
2023-05-08T16:07:03.526Z,18.40
2023-05-08T16:09:30.361Z,18.50
2023-05-08T16:11:57.292Z,18.50
2023-05-08T16:14:24.178Z,18.50
2023-05-08T16:16:51.049Z,18.40
2023-05-08T16:19:18.000Z,18.40
2023-05-08T16:21:48.032Z,18.20
2023-05-08T16:24:14.975Z,18.20
2023-05-08T16:26:41.870Z,18.20
2023-05-08T16:29:08.881Z,18.10
2023-05-08T16:31:35.868Z,18.10
2023-05-08T16:34:02.879Z,17.90
2023-05-08T16:36:29.965Z,17.80
2023-05-08T16:38:56.885Z,17.70
2023-05-08T16:41:23.911Z,17.70
2023-05-08T16:43:50.858Z,17.70
2023-05-08T16:46:29.149Z,17.70
2023-05-08T16:48:56.685Z,17.60
2023-05-08T16:51:23.608Z,17.60
2023-05-08T16:53:50.580Z,17.50
2023-05-08T16:56:17.467Z,17.50
2023-05-08T16:58:44.384Z,17.60
2023-05-08T17:01:12.288Z,17.60
2023-05-08T17:03:39.255Z,17.60
2023-05-08T17:06:07.685Z,17.60
2023-05-08T17:08:34.768Z,17.50
2023-05-08T17:11:01.648Z,17.60
2023-05-08T17:13:28.628Z,17.60
2023-05-08T17:15:55.620Z,17.70
2023-05-08T17:18:22.634Z,17.70
2023-05-08T17:20:50.252Z,17.70
2023-05-08T17:23:17.204Z,17.70
2023-05-08T17:25:44.123Z,17.80
2023-05-08T17:28:11.171Z,17.90
2023-05-08T17:30:38.341Z,17.90
2023-05-08T17:33:05.414Z,17.90
2023-05-08T17:35:32.443Z,17.90
2023-05-08T17:37:59.363Z,17.90
2023-05-08T17:40:30.659Z,17.80
2023-05-08T17:42:59.925Z,17.80
2023-05-08T17:45:27.253Z,17.70
2023-05-08T17:47:54.368Z,17.80
2023-05-08T17:50:21.519Z,17.80
2023-05-08T17:52:48.387Z,17.80
2023-05-08T17:55:15.297Z,17.70
2023-05-08T17:57:42.299Z,17.70
2023-05-08T18:00:09.986Z,17.70
2023-05-08T18:02:36.938Z,17.60
2023-05-08T18:05:04.137Z,17.60
2023-05-08T18:07:31.297Z,17.60
2023-05-08T18:09:58.943Z,17.50
2023-05-08T18:12:25.855Z,17.50
2023-05-08T18:14:52.697Z,17.50
2023-05-08T18:17:20.702Z,17.40
2023-05-08T18:19:47.597Z,17.40
2023-05-08T18:22:14.512Z,17.40
2023-05-08T18:24:41.382Z,17.30
2023-05-08T18:27:08.355Z,17.30
2023-05-08T18:29:35.418Z,17.30
2023-05-08T18:32:02.383Z,17.30
2023-05-08T18:34:29.290Z,17.30
2023-05-08T18:36:58.050Z,17.30
2023-05-08T18:39:25.213Z,17.30
2023-05-08T18:41:52.172Z,17.20
2023-05-08T18:44:19.066Z,17.20
2023-05-08T18:46:46.085Z,17.20
2023-05-08T18:49:13.027Z,17.10
2023-05-08T18:51:39.929Z,17.10
2023-05-08T18:54:06.793Z,17.00
2023-05-08T18:56:34.389Z,17.00
2023-05-08T18:59:01.576Z,17.00
2023-05-08T19:01:28.545Z,16.90
2023-05-08T19:03:55.633Z,16.90
2023-05-08T19:06:22.757Z,16.80
2023-05-08T19:08:49.684Z,16.80
2023-05-08T19:11:17.038Z,16.80
2023-05-08T19:13:43.972Z,16.80
2023-05-08T19:16:10.971Z,16.70
2023-05-08T19:18:37.905Z,16.70
2023-05-08T19:21:04.927Z,16.70
2023-05-08T19:23:31.771Z,16.60
2023-05-08T19:25:58.696Z,16.60
2023-05-08T19:28:25.714Z,16.60
2023-05-08T19:30:52.627Z,16.60
2023-05-08T19:33:22.328Z,16.50
2023-05-08T19:35:49.355Z,16.50
2023-05-08T19:38:16.459Z,16.50
2023-05-08T19:40:55.694Z,16.40
2023-05-08T19:43:23.922Z,16.40
2023-05-08T19:45:50.867Z,16.40
2023-05-08T19:48:19.671Z,16.30
2023-05-08T19:50:46.553Z,16.30
2023-05-08T19:53:13.732Z,16.30
2023-05-08T19:55:40.617Z,16.30
2023-05-08T19:58:07.545Z,16.30
2023-05-08T20:00:34.658Z,16.20
2023-05-08T20:03:01.759Z,16.20
2023-05-08T20:05:28.811Z,16.20
2023-05-08T20:07:55.747Z,16.10
2023-05-08T20:10:22.933Z,16.10
2023-05-08T20:12:49.856Z,16.10
2023-05-08T20:15:16.859Z,16.10
2023-05-08T20:17:43.814Z,16.00
2023-05-08T20:20:11.878Z,16.00
2023-05-08T20:22:38.940Z,16.00
2023-05-08T20:25:06.765Z,15.90
2023-05-08T20:27:33.707Z,15.90
2023-05-08T20:30:00.688Z,15.80
2023-05-08T20:32:27.555Z,15.80
2023-05-08T20:34:54.524Z,15.80
2023-05-08T20:37:21.437Z,15.80
2023-05-08T20:39:48.274Z,15.80
2023-05-08T20:42:15.108Z,15.80
2023-05-08T20:44:42.005Z,15.70
2023-05-08T20:47:08.943Z,15.70
2023-05-08T20:49:35.863Z,15.70
2023-05-08T20:52:02.795Z,15.60
2023-05-08T20:54:30.464Z,15.60
2023-05-08T20:56:57.445Z,15.60
2023-05-08T20:59:24.426Z,15.50
2023-05-08T21:01:51.424Z,15.50
2023-05-08T21:04:18.390Z,15.40
2023-05-08T21:06:45.315Z,15.40
2023-05-08T21:09:12.217Z,15.40
2023-05-08T21:11:39.170Z,15.30
2023-05-08T21:14:06.149Z,15.30
2023-05-08T21:16:33.150Z,15.30
2023-05-08T21:19:00.118Z,15.20
2023-05-08T21:21:27.156Z,15.20
2023-05-08T21:23:54.040Z,15.20
2023-05-08T21:26:23.613Z,15.10
2023-05-08T21:28:52.592Z,15.10
2023-05-08T21:31:20.080Z,15.10
2023-05-08T21:33:47.106Z,15.00
2023-05-08T21:36:14.115Z,14.90
2023-05-08T21:38:41.780Z,14.90
2023-05-08T21:41:08.852Z,14.90
2023-05-08T21:43:36.269Z,14.80
2023-05-08T21:46:07.340Z,14.80
2023-05-08T21:48:34.654Z,14.70
2023-05-08T21:51:02.105Z,14.70
2023-05-08T21:53:29.188Z,14.60
2023-05-08T21:55:56.340Z,14.60
2023-05-08T21:58:23.360Z,14.60
2023-05-08T22:00:50.253Z,14.60
2023-05-08T22:03:17.527Z,14.60
2023-05-08T22:05:44.497Z,14.70
2023-05-08T22:08:11.416Z,14.60
2023-05-08T22:10:38.390Z,14.60
2023-05-08T22:13:06.584Z,14.60
2023-05-08T22:15:33.741Z,14.60
2023-05-08T22:18:02.823Z,14.60
2023-05-08T22:20:30.184Z,14.60
2023-05-08T22:22:57.117Z,14.60
2023-05-08T22:25:25.281Z,14.60
2023-05-08T22:27:52.512Z,14.60
2023-05-08T22:30:19.466Z,14.60
2023-05-08T22:32:57.284Z,14.60
2023-05-08T22:35:25.998Z,14.60
2023-05-08T22:37:53.788Z,14.60
2023-05-08T22:40:21.994Z,14.70
2023-05-08T22:42:51.330Z,14.70
2023-05-08T22:45:18.382Z,14.70
2023-05-08T22:47:45.638Z,14.70
2023-05-08T22:50:12.553Z,14.70
2023-05-08T22:52:40.146Z,14.70
2023-05-08T22:55:07.939Z,14.70
2023-05-08T22:57:34.903Z,14.70
2023-05-08T23:00:01.879Z,14.70
2023-05-08T23:02:33.494Z,14.70
2023-05-08T23:05:00.751Z,14.70
2023-05-08T23:07:28.714Z,14.70
2023-05-08T23:09:55.616Z,14.70
2023-05-08T23:12:22.480Z,14.70
2023-05-08T23:14:49.426Z,14.70
2023-05-08T23:17:16.338Z,14.70
2023-05-08T23:19:43.578Z,14.70
2023-05-08T23:22:10.528Z,14.80
2023-05-08T23:24:37.413Z,14.80
2023-05-08T23:27:04.388Z,14.80
2023-05-08T23:29:31.264Z,14.80
2023-05-08T23:31:58.160Z,14.80
2023-05-08T23:34:25.122Z,14.80
2023-05-08T23:36:52.044Z,14.70
2023-05-08T23:39:18.966Z,14.70
2023-05-08T23:41:45.888Z,14.70
2023-05-08T23:44:12.763Z,14.70
2023-05-08T23:46:39.747Z,14.70
2023-05-08T23:49:07.365Z,14.80
2023-05-08T23:51:34.277Z,14.80
2023-05-08T23:54:01.438Z,14.80
2023-05-08T23:56:29.550Z,14.80
2023-05-08T23:58:56.647Z,14.80
